sensor_id;sensor_type;location;lat;lon;timestamp;P1;durP1;ratioP1;P2;durP2;ratioP2
5752;SDS011;2901;42.140;24.760;2024-01-15T00:00:32;46.37;;;25.50;;
5752;SDS011;2901;42.140;24.760;2024-01-15T00:02:58;66.27;;;31.53;;
5752;SDS011;2901;42.140;24.760;2024-01-15T00:05:23;69.00;;;34.03;;
5752;SDS011;2901;42.140;24.760;2024-01-15T00:07:49;81.57;;;35.63;;
5752;SDS011;2901;42.140;24.760;2024-01-15T00:10:14;101.53;;;43.23;;
5752;SDS011;2901;42.140;24.760;2024-01-15T00:12:40;112.23;;;46.30;;
5752;SDS011;2901;42.140;24.760;2024-01-15T00:15:05;110.33;;;46.47;;
5752;SDS011;2901;42.140;24.760;2024-01-15T00:17:31;108.90;;;46.07;;
5752;SDS011;2901;42.140;24.760;2024-01-15T00:19:56;110.57;;;44.67;;
5752;SDS011;2901;42.140;24.760;2024-01-15T00:22:23;108.50;;;45.57;;
5752;SDS011;2901;42.140;24.760;2024-01-15T00:24:50;112.27;;;46.23;;
5752;SDS011;2901;42.140;24.760;2024-01-15T00:27:15;117.30;;;47.17;;
5752;SDS011;2901;42.140;24.760;2024-01-15T00:29:41;96.67;;;45.37;;
5752;SDS011;2901;42.140;24.760;2024-01-15T00:32:07;102.20;;;43.97;;
5752;SDS011;2901;42.140;24.760;2024-01-15T00:34:32;112.87;;;46.00;;
5752;SDS011;2901;42.140;24.760;2024-01-15T00:36:57;108.37;;;45.50;;
5752;SDS011;2901;42.140;24.760;2024-01-15T00:39:23;102.87;;;44.33;;
5752;SDS011;2901;42.140;24.760;2024-01-15T00:41:48;91.23;;;43.43;;
5752;SDS011;2901;42.140;24.760;2024-01-15T00:44:14;101.30;;;44.77;;
5752;SDS011;2901;42.140;24.760;2024-01-15T00:46:43;105.77;;;43.53;;
5752;SDS011;2901;42.140;24.760;2024-01-15T00:49:10;94.83;;;43.20;;
5752;SDS011;2901;42.140;24.760;2024-01-15T00:51:36;102.90;;;43.80;;
5752;SDS011;2901;42.140;24.760;2024-01-15T00:54:02;98.90;;;44.57;;
5752;SDS011;2901;42.140;24.760;2024-01-15T00:56:27;93.90;;;38.90;;
5752;SDS011;2901;42.140;24.760;2024-01-15T00:58:52;80.47;;;37.67;;
5752;SDS011;2901;42.140;24.760;2024-01-15T01:01:18;78.03;;;37.30;;
5752;SDS011;2901;42.140;24.760;2024-01-15T01:03:43;80.00;;;34.80;;
5752;SDS011;2901;42.140;24.760;2024-01-15T01:06:09;86.57;;;35.50;;
5752;SDS011;2901;42.140;24.760;2024-01-15T01:08:34;104.87;;;39.27;;
5752;SDS011;2901;42.140;24.760;2024-01-15T01:10:59;114.93;;;44.67;;
5752;SDS011;2901;42.140;24.760;2024-01-15T01:13:25;109.13;;;41.70;;
5752;SDS011;2901;42.140;24.760;2024-01-15T01:15:50;96.07;;;38.60;;
5752;SDS011;2901;42.140;24.760;2024-01-15T01:18:16;87.13;;;37.47;;
5752;SDS011;2901;42.140;24.760;2024-01-15T01:20:41;72.17;;;35.90;;
5752;SDS011;2901;42.140;24.760;2024-01-15T01:23:07;78.20;;;35.43;;
5752;SDS011;2901;42.140;24.760;2024-01-15T01:25:32;91.60;;;37.83;;
5752;SDS011;2901;42.140;24.760;2024-01-15T01:27:57;68.53;;;33.60;;
5752;SDS011;2901;42.140;24.760;2024-01-15T01:30:23;111.07;;;41.07;;
5752;SDS011;2901;42.140;24.760;2024-01-15T01:32:48;89.57;;;39.33;;
5752;SDS011;2901;42.140;24.760;2024-01-15T01:35:13;111.73;;;42.20;;
5752;SDS011;2901;42.140;24.760;2024-01-15T01:37:39;102.60;;;41.03;;
5752;SDS011;2901;42.140;24.760;2024-01-15T01:40:05;92.47;;;39.30;;
5752;SDS011;2901;42.140;24.760;2024-01-15T01:42:30;95.37;;;39.00;;
5752;SDS011;2901;42.140;24.760;2024-01-15T01:44:56;83.77;;;38.80;;
5752;SDS011;2901;42.140;24.760;2024-01-15T01:47:21;72.67;;;30.83;;
5752;SDS011;2901;42.140;24.760;2024-01-15T01:49:46;59.97;;;29.40;;
5752;SDS011;2901;42.140;24.760;2024-01-15T01:52:12;71.17;;;27.87;;
5752;SDS011;2901;42.140;24.760;2024-01-15T01:54:38;59.67;;;26.40;;
5752;SDS011;2901;42.140;24.760;2024-01-15T01:57:05;54.83;;;25.63;;
5752;SDS011;2901;42.140;24.760;2024-01-15T01:59:31;55.47;;;24.77;;
5752;SDS011;2901;42.140;24.760;2024-01-15T02:01:58;52.57;;;26.33;;
5752;SDS011;2901;42.140;24.760;2024-01-15T02:04:26;53.70;;;23.43;;
5752;SDS011;2901;42.140;24.760;2024-01-15T02:06:52;54.47;;;26.03;;
5752;SDS011;2901;42.140;24.760;2024-01-15T02:09:18;53.07;;;23.80;;
5752;SDS011;2901;42.140;24.760;2024-01-15T02:11:43;48.23;;;22.90;;
5752;SDS011;2901;42.140;24.760;2024-01-15T02:14:11;43.87;;;22.23;;
5752;SDS011;2901;42.140;24.760;2024-01-15T02:16:37;51.57;;;22.50;;
5752;SDS011;2901;42.140;24.760;2024-01-15T02:19:02;45.93;;;21.77;;
5752;SDS011;2901;42.140;24.760;2024-01-15T02:21:28;40.97;;;20.90;;
5752;SDS011;2901;42.140;24.760;2024-01-15T02:23:54;35.53;;;20.67;;
5752;SDS011;2901;42.140;24.760;2024-01-15T02:26:20;39.07;;;21.80;;
5752;SDS011;2901;42.140;24.760;2024-01-15T02:28:47;38.87;;;19.87;;
5752;SDS011;2901;42.140;24.760;2024-01-15T02:31:13;44.27;;;20.83;;
5752;SDS011;2901;42.140;24.760;2024-01-15T02:33:38;43.23;;;21.97;;
5752;SDS011;2901;42.140;24.760;2024-01-15T02:36:04;38.57;;;20.13;;
5752;SDS011;2901;42.140;24.760;2024-01-15T02:38:29;35.27;;;19.53;;
5752;SDS011;2901;42.140;24.760;2024-01-15T02:40:55;36.93;;;18.97;;
5752;SDS011;2901;42.140;24.760;2024-01-15T02:43:20;38.03;;;20.50;;
5752;SDS011;2901;42.140;24.760;2024-01-15T02:45:46;39.70;;;22.43;;
5752;SDS011;2901;42.140;24.760;2024-01-15T02:48:12;39.73;;;21.53;;
5752;SDS011;2901;42.140;24.760;2024-01-15T02:50:37;39.67;;;22.50;;
5752;SDS011;2901;42.140;24.760;2024-01-15T02:53:02;40.20;;;22.20;;
5752;SDS011;2901;42.140;24.760;2024-01-15T02:55:28;39.53;;;20.90;;
5752;SDS011;2901;42.140;24.760;2024-01-15T02:57:56;36.53;;;21.87;;
5752;SDS011;2901;42.140;24.760;2024-01-15T03:00:22;36.13;;;21.70;;
5752;SDS011;2901;42.140;24.760;2024-01-15T03:02:47;34.33;;;19.80;;
5752;SDS011;2901;42.140;24.760;2024-01-15T03:05:15;45.97;;;23.17;;
5752;SDS011;2901;42.140;24.760;2024-01-15T03:07:40;39.70;;;21.53;;
5752;SDS011;2901;42.140;24.760;2024-01-15T03:10:06;41.00;;;22.37;;
5752;SDS011;2901;42.140;24.760;2024-01-15T03:12:32;38.87;;;21.80;;
5752;SDS011;2901;42.140;24.760;2024-01-15T03:14:57;44.50;;;21.27;;
5752;SDS011;2901;42.140;24.760;2024-01-15T03:17:23;39.53;;;22.07;;
5752;SDS011;2901;42.140;24.760;2024-01-15T03:19:48;42.10;;;22.43;;
5752;SDS011;2901;42.140;24.760;2024-01-15T03:22:14;37.30;;;21.43;;
5752;SDS011;2901;42.140;24.760;2024-01-15T03:24:40;47.00;;;24.77;;
5752;SDS011;2901;42.140;24.760;2024-01-15T03:27:06;60.13;;;24.67;;
5752;SDS011;2901;42.140;24.760;2024-01-15T03:29:31;42.50;;;23.40;;
5752;SDS011;2901;42.140;24.760;2024-01-15T03:31:56;41.77;;;23.43;;
5752;SDS011;2901;42.140;24.760;2024-01-15T03:34:22;46.23;;;25.03;;
5752;SDS011;2901;42.140;24.760;2024-01-15T03:36:47;49.87;;;26.10;;
5752;SDS011;2901;42.140;24.760;2024-01-15T03:39:13;50.53;;;26.77;;
5752;SDS011;2901;42.140;24.760;2024-01-15T03:41:38;50.47;;;27.10;;
5752;SDS011;2901;42.140;24.760;2024-01-15T03:44:03;48.83;;;26.53;;
5752;SDS011;2901;42.140;24.760;2024-01-15T03:46:29;49.53;;;26.13;;
5752;SDS011;2901;42.140;24.760;2024-01-15T03:48:54;53.67;;;25.90;;
5752;SDS011;2901;42.140;24.760;2024-01-15T03:51:20;48.17;;;25.73;;
5752;SDS011;2901;42.140;24.760;2024-01-15T03:53:45;39.60;;;23.30;;
5752;SDS011;2901;42.140;24.760;2024-01-15T03:56:11;42.13;;;23.20;;
5752;SDS011;2901;42.140;24.760;2024-01-15T03:58:37;40.37;;;22.17;;
5752;SDS011;2901;42.140;24.760;2024-01-15T04:01:02;35.10;;;22.37;;
5752;SDS011;2901;42.140;24.760;2024-01-15T04:03:28;42.63;;;21.10;;
5752;SDS011;2901;42.140;24.760;2024-01-15T04:05:53;37.73;;;21.90;;
5752;SDS011;2901;42.140;24.760;2024-01-15T04:08:19;36.90;;;22.00;;
5752;SDS011;2901;42.140;24.760;2024-01-15T04:10:44;43.77;;;22.97;;
5752;SDS011;2901;42.140;24.760;2024-01-15T04:13:10;45.67;;;21.47;;
5752;SDS011;2901;42.140;24.760;2024-01-15T04:15:35;40.17;;;21.60;;
5752;SDS011;2901;42.140;24.760;2024-01-15T04:18:02;43.33;;;21.97;;
5752;SDS011;2901;42.140;24.760;2024-01-15T04:20:27;48.20;;;22.73;;
5752;SDS011;2901;42.140;24.760;2024-01-15T04:22:53;43.23;;;21.03;;
5752;SDS011;2901;42.140;24.760;2024-01-15T04:25:18;35.60;;;20.50;;
5752;SDS011;2901;42.140;24.760;2024-01-15T04:27:44;49.10;;;26.33;;
5752;SDS011;2901;42.140;24.760;2024-01-15T04:30:09;52.07;;;26.57;;
5752;SDS011;2901;42.140;24.760;2024-01-15T04:32:35;55.60;;;25.93;;
5752;SDS011;2901;42.140;24.760;2024-01-15T04:35:01;50.33;;;26.53;;
5752;SDS011;2901;42.140;24.760;2024-01-15T04:37:26;52.83;;;25.47;;
5752;SDS011;2901;42.140;24.760;2024-01-15T04:39:52;55.23;;;24.73;;
5752;SDS011;2901;42.140;24.760;2024-01-15T04:42:20;54.10;;;23.43;;
5752;SDS011;2901;42.140;24.760;2024-01-15T04:44:45;57.70;;;25.30;;
5752;SDS011;2901;42.140;24.760;2024-01-15T04:47:11;41.33;;;23.20;;
5752;SDS011;2901;42.140;24.760;2024-01-15T04:49:36;54.80;;;26.13;;
5752;SDS011;2901;42.140;24.760;2024-01-15T04:52:01;46.97;;;25.07;;
5752;SDS011;2901;42.140;24.760;2024-01-15T04:54:27;57.53;;;28.43;;
5752;SDS011;2901;42.140;24.760;2024-01-15T04:56:52;64.93;;;30.27;;
5752;SDS011;2901;42.140;24.760;2024-01-15T04:59:18;54.30;;;26.87;;
5752;SDS011;2901;42.140;24.760;2024-01-15T05:01:43;42.37;;;23.00;;
5752;SDS011;2901;42.140;24.760;2024-01-15T05:04:08;46.70;;;23.57;;
5752;SDS011;2901;42.140;24.760;2024-01-15T05:06:34;48.67;;;25.03;;
5752;SDS011;2901;42.140;24.760;2024-01-15T05:08:59;41.50;;;23.50;;
5752;SDS011;2901;42.140;24.760;2024-01-15T05:11:25;41.73;;;22.43;;
5752;SDS011;2901;42.140;24.760;2024-01-15T05:13:51;45.00;;;24.67;;
5752;SDS011;2901;42.140;24.760;2024-01-15T05:16:16;38.90;;;22.23;;
5752;SDS011;2901;42.140;24.760;2024-01-15T05:18:42;44.67;;;23.27;;
5752;SDS011;2901;42.140;24.760;2024-01-15T05:21:08;43.70;;;24.80;;
5752;SDS011;2901;42.140;24.760;2024-01-15T05:23:34;40.53;;;23.60;;
5752;SDS011;2901;42.140;24.760;2024-01-15T05:25:59;44.83;;;24.40;;
5752;SDS011;2901;42.140;24.760;2024-01-15T05:28:24;46.00;;;24.83;;
5752;SDS011;2901;42.140;24.760;2024-01-15T05:30:50;49.47;;;24.47;;
5752;SDS011;2901;42.140;24.760;2024-01-15T05:33:20;40.83;;;23.23;;
5752;SDS011;2901;42.140;24.760;2024-01-15T05:35:46;41.63;;;23.90;;
5752;SDS011;2901;42.140;24.760;2024-01-15T05:38:11;55.10;;;26.70;;
5752;SDS011;2901;42.140;24.760;2024-01-15T05:40:37;51.77;;;26.53;;
5752;SDS011;2901;42.140;24.760;2024-01-15T05:43:03;53.50;;;28.93;;
5752;SDS011;2901;42.140;24.760;2024-01-15T05:45:29;50.60;;;27.83;;
5752;SDS011;2901;42.140;24.760;2024-01-15T05:47:55;50.90;;;26.80;;
5752;SDS011;2901;42.140;24.760;2024-01-15T05:50:21;57.47;;;26.83;;
5752;SDS011;2901;42.140;24.760;2024-01-15T05:52:47;56.23;;;29.37;;
5752;SDS011;2901;42.140;24.760;2024-01-15T05:55:12;62.90;;;28.27;;
5752;SDS011;2901;42.140;24.760;2024-01-15T05:57:38;51.27;;;27.03;;
5752;SDS011;2901;42.140;24.760;2024-01-15T06:00:04;50.73;;;26.37;;
5752;SDS011;2901;42.140;24.760;2024-01-15T06:02:29;55.07;;;27.47;;
5752;SDS011;2901;42.140;24.760;2024-01-15T06:04:55;50.30;;;25.83;;
5752;SDS011;2901;42.140;24.760;2024-01-15T06:07:20;49.87;;;25.13;;
5752;SDS011;2901;42.140;24.760;2024-01-15T06:09:46;52.50;;;25.90;;
5752;SDS011;2901;42.140;24.760;2024-01-15T06:12:11;49.43;;;24.33;;
5752;SDS011;2901;42.140;24.760;2024-01-15T06:14:37;54.40;;;25.50;;
5752;SDS011;2901;42.140;24.760;2024-01-15T06:17:03;47.90;;;25.47;;
5752;SDS011;2901;42.140;24.760;2024-01-15T06:19:28;51.53;;;26.73;;
5752;SDS011;2901;42.140;24.760;2024-01-15T06:21:53;62.10;;;25.67;;
5752;SDS011;2901;42.140;24.760;2024-01-15T06:24:19;52.53;;;26.30;;
5752;SDS011;2901;42.140;24.760;2024-01-15T06:26:46;51.50;;;27.33;;
5752;SDS011;2901;42.140;24.760;2024-01-15T06:29:12;56.33;;;28.03;;
5752;SDS011;2901;42.140;24.760;2024-01-15T06:31:37;53.80;;;26.60;;
5752;SDS011;2901;42.140;24.760;2024-01-15T06:34:02;52.53;;;26.20;;
5752;SDS011;2901;42.140;24.760;2024-01-15T06:36:28;50.60;;;26.17;;
5752;SDS011;2901;42.140;24.760;2024-01-15T06:38:53;43.67;;;24.73;;
5752;SDS011;2901;42.140;24.760;2024-01-15T06:41:19;57.43;;;26.83;;
5752;SDS011;2901;42.140;24.760;2024-01-15T06:43:44;50.70;;;24.37;;
5752;SDS011;2901;42.140;24.760;2024-01-15T06:46:10;41.63;;;22.73;;
5752;SDS011;2901;42.140;24.760;2024-01-15T06:48:35;46.97;;;21.70;;
5752;SDS011;2901;42.140;24.760;2024-01-15T06:51:00;39.43;;;22.93;;
5752;SDS011;2901;42.140;24.760;2024-01-15T06:53:26;41.20;;;22.87;;
5752;SDS011;2901;42.140;24.760;2024-01-15T06:55:51;52.33;;;24.83;;
5752;SDS011;2901;42.140;24.760;2024-01-15T06:58:16;43.70;;;23.63;;
5752;SDS011;2901;42.140;24.760;2024-01-15T07:00:42;50.00;;;24.97;;
5752;SDS011;2901;42.140;24.760;2024-01-15T07:03:07;47.00;;;25.07;;
5752;SDS011;2901;42.140;24.760;2024-01-15T07:05:33;42.20;;;24.43;;
5752;SDS011;2901;42.140;24.760;2024-01-15T07:07:58;44.73;;;24.07;;
5752;SDS011;2901;42.140;24.760;2024-01-15T07:10:24;53.20;;;25.50;;
5752;SDS011;2901;42.140;24.760;2024-01-15T07:12:49;42.40;;;23.97;;
5752;SDS011;2901;42.140;24.760;2024-01-15T07:15:14;46.07;;;24.10;;
5752;SDS011;2901;42.140;24.760;2024-01-15T07:17:40;40.47;;;23.47;;
5752;SDS011;2901;42.140;24.760;2024-01-15T07:20:06;49.60;;;24.07;;
5752;SDS011;2901;42.140;24.760;2024-01-15T07:22:35;43.90;;;23.73;;
5752;SDS011;2901;42.140;24.760;2024-01-15T07:25:01;54.57;;;27.43;;
5752;SDS011;2901;42.140;24.760;2024-01-15T07:27:28;50.03;;;25.37;;
5752;SDS011;2901;42.140;24.760;2024-01-15T07:29:53;51.63;;;26.23;;
5752;SDS011;2901;42.140;24.760;2024-01-15T07:32:19;50.87;;;25.03;;
5752;SDS011;2901;42.140;24.760;2024-01-15T07:34:45;46.13;;;22.90;;
5752;SDS011;2901;42.140;24.760;2024-01-15T07:37:11;43.80;;;22.83;;
5752;SDS011;2901;42.140;24.760;2024-01-15T07:39:36;41.80;;;23.07;;
5752;SDS011;2901;42.140;24.760;2024-01-15T07:42:02;43.87;;;23.93;;
5752;SDS011;2901;42.140;24.760;2024-01-15T07:44:27;46.00;;;23.67;;
5752;SDS011;2901;42.140;24.760;2024-01-15T07:46:52;42.27;;;23.93;;
5752;SDS011;2901;42.140;24.760;2024-01-15T07:49:18;53.30;;;25.30;;
5752;SDS011;2901;42.140;24.760;2024-01-15T07:51:43;54.70;;;27.83;;
5752;SDS011;2901;42.140;24.760;2024-01-15T07:54:09;55.97;;;25.70;;
5752;SDS011;2901;42.140;24.760;2024-01-15T07:56:52;48.50;;;25.87;;
5752;SDS011;2901;42.140;24.760;2024-01-15T07:59:21;45.17;;;24.53;;
5752;SDS011;2901;42.140;24.760;2024-01-15T08:01:47;39.60;;;23.63;;
5752;SDS011;2901;42.140;24.760;2024-01-15T08:04:12;44.63;;;24.87;;
5752;SDS011;2901;42.140;24.760;2024-01-15T08:06:38;51.27;;;22.80;;
5752;SDS011;2901;42.140;24.760;2024-01-15T08:09:03;46.30;;;25.17;;
5752;SDS011;2901;42.140;24.760;2024-01-15T08:11:29;48.53;;;25.33;;
5752;SDS011;2901;42.140;24.760;2024-01-15T08:13:55;64.70;;;27.40;;
5752;SDS011;2901;42.140;24.760;2024-01-15T08:16:20;52.07;;;25.63;;
5752;SDS011;2901;42.140;24.760;2024-01-15T08:18:46;51.00;;;26.77;;
5752;SDS011;2901;42.140;24.760;2024-01-15T08:21:12;57.43;;;30.73;;
5752;SDS011;2901;42.140;24.760;2024-01-15T08:23:38;67.87;;;29.70;;
5752;SDS011;2901;42.140;24.760;2024-01-15T08:26:03;46.20;;;26.87;;
5752;SDS011;2901;42.140;24.760;2024-01-15T08:28:29;69.47;;;29.63;;
5752;SDS011;2901;42.140;24.760;2024-01-15T08:30:55;51.20;;;27.10;;
5752;SDS011;2901;42.140;24.760;2024-01-15T08:33:21;45.47;;;24.80;;
5752;SDS011;2901;42.140;24.760;2024-01-15T08:35:46;41.90;;;23.40;;
5752;SDS011;2901;42.140;24.760;2024-01-15T08:38:11;42.10;;;24.17;;
5752;SDS011;2901;42.140;24.760;2024-01-15T08:40:37;43.87;;;25.10;;
5752;SDS011;2901;42.140;24.760;2024-01-15T08:43:02;47.27;;;24.97;;
5752;SDS011;2901;42.140;24.760;2024-01-15T08:45:28;54.23;;;26.03;;
5752;SDS011;2901;42.140;24.760;2024-01-15T08:47:53;45.43;;;26.50;;
5752;SDS011;2901;42.140;24.760;2024-01-15T08:50:18;56.63;;;26.43;;
5752;SDS011;2901;42.140;24.760;2024-01-15T08:52:44;59.20;;;27.27;;
5752;SDS011;2901;42.140;24.760;2024-01-15T08:55:09;48.87;;;26.60;;
5752;SDS011;2901;42.140;24.760;2024-01-15T08:57:35;51.63;;;27.03;;
5752;SDS011;2901;42.140;24.760;2024-01-15T09:00:00;49.30;;;25.03;;
5752;SDS011;2901;42.140;24.760;2024-01-15T09:02:25;50.83;;;27.47;;
5752;SDS011;2901;42.140;24.760;2024-01-15T09:04:51;47.40;;;26.60;;
5752;SDS011;2901;42.140;24.760;2024-01-15T09:07:16;49.07;;;26.83;;
5752;SDS011;2901;42.140;24.760;2024-01-15T09:09:42;58.20;;;26.87;;
5752;SDS011;2901;42.140;24.760;2024-01-15T09:12:07;55.73;;;28.30;;
5752;SDS011;2901;42.140;24.760;2024-01-15T09:14:33;54.53;;;27.70;;
5752;SDS011;2901;42.140;24.760;2024-01-15T09:16:59;49.10;;;27.87;;
5752;SDS011;2901;42.140;24.760;2024-01-15T09:19:24;45.93;;;27.30;;
5752;SDS011;2901;42.140;24.760;2024-01-15T09:21:50;45.80;;;26.60;;
5752;SDS011;2901;42.140;24.760;2024-01-15T09:24:15;60.33;;;28.63;;
5752;SDS011;2901;42.140;24.760;2024-01-15T09:26:40;47.60;;;26.37;;
5752;SDS011;2901;42.140;24.760;2024-01-15T09:29:06;48.70;;;28.33;;
5752;SDS011;2901;42.140;24.760;2024-01-15T09:31:31;48.97;;;26.80;;
5752;SDS011;2901;42.140;24.760;2024-01-15T09:33:57;51.87;;;27.30;;
5752;SDS011;2901;42.140;24.760;2024-01-15T09:36:24;48.60;;;27.27;;
5752;SDS011;2901;42.140;24.760;2024-01-15T09:38:50;55.87;;;26.13;;
5752;SDS011;2901;42.140;24.760;2024-01-15T09:41:16;44.27;;;25.57;;
5752;SDS011;2901;42.140;24.760;2024-01-15T09:43:41;39.23;;;24.07;;
5752;SDS011;2901;42.140;24.760;2024-01-15T09:46:08;44.00;;;25.13;;
5752;SDS011;2901;42.140;24.760;2024-01-15T09:48:33;42.90;;;24.20;;
5752;SDS011;2901;42.140;24.760;2024-01-15T09:51:00;44.67;;;24.33;;
5752;SDS011;2901;42.140;24.760;2024-01-15T09:53:27;49.23;;;24.10;;
5752;SDS011;2901;42.140;24.760;2024-01-15T09:55:52;41.77;;;23.67;;
5752;SDS011;2901;42.140;24.760;2024-01-15T09:58:18;48.10;;;24.63;;
5752;SDS011;2901;42.140;24.760;2024-01-15T10:00:44;38.70;;;22.90;;
5752;SDS011;2901;42.140;24.760;2024-01-15T10:03:12;37.33;;;21.63;;
5752;SDS011;2901;42.140;24.760;2024-01-15T10:05:38;37.53;;;20.93;;
5752;SDS011;2901;42.140;24.760;2024-01-15T10:08:04;40.63;;;23.17;;
5752;SDS011;2901;42.140;24.760;2024-01-15T10:10:30;49.83;;;25.03;;
5752;SDS011;2901;42.140;24.760;2024-01-15T10:12:56;36.23;;;21.77;;
5752;SDS011;2901;42.140;24.760;2024-01-15T10:15:23;36.77;;;21.70;;
5752;SDS011;2901;42.140;24.760;2024-01-15T10:17:49;37.20;;;20.97;;
5752;SDS011;2901;42.140;24.760;2024-01-15T10:20:15;38.53;;;20.70;;
5752;SDS011;2901;42.140;24.760;2024-01-15T10:22:41;40.57;;;22.60;;
5752;SDS011;2901;42.140;24.760;2024-01-15T10:25:12;36.80;;;22.20;;
5752;SDS011;2901;42.140;24.760;2024-01-15T10:27:38;37.00;;;22.03;;
5752;SDS011;2901;42.140;24.760;2024-01-15T10:30:05;37.03;;;21.63;;
5752;SDS011;2901;42.140;24.760;2024-01-15T10:32:31;37.17;;;21.77;;
5752;SDS011;2901;42.140;24.760;2024-01-15T10:34:56;39.27;;;22.83;;
5752;SDS011;2901;42.140;24.760;2024-01-15T10:37:23;42.00;;;22.93;;
5752;SDS011;2901;42.140;24.760;2024-01-15T10:39:49;49.90;;;23.40;;
5752;SDS011;2901;42.140;24.760;2024-01-15T10:42:15;41.43;;;22.70;;
5752;SDS011;2901;42.140;24.760;2024-01-15T10:44:42;42.17;;;23.23;;
5752;SDS011;2901;42.140;24.760;2024-01-15T10:47:08;37.90;;;23.47;;
5752;SDS011;2901;42.140;24.760;2024-01-15T10:49:34;40.43;;;22.43;;
5752;SDS011;2901;42.140;24.760;2024-01-15T10:52:03;45.27;;;24.33;;
5752;SDS011;2901;42.140;24.760;2024-01-15T10:54:29;53.07;;;25.80;;
5752;SDS011;2901;42.140;24.760;2024-01-15T10:56:55;46.43;;;25.70;;
5752;SDS011;2901;42.140;24.760;2024-01-15T10:59:21;48.63;;;26.70;;
5752;SDS011;2901;42.140;24.760;2024-01-15T11:01:50;42.13;;;24.40;;
5752;SDS011;2901;42.140;24.760;2024-01-15T11:04:19;41.90;;;23.27;;
5752;SDS011;2901;42.140;24.760;2024-01-15T11:06:46;38.20;;;23.23;;
5752;SDS011;2901;42.140;24.760;2024-01-15T11:09:13;61.10;;;28.97;;
5752;SDS011;2901;42.140;24.760;2024-01-15T11:11:40;48.67;;;23.63;;
5752;SDS011;2901;42.140;24.760;2024-01-15T11:14:07;53.70;;;25.33;;
5752;SDS011;2901;42.140;24.760;2024-01-15T11:19:21;48.42;;;24.23;;
5752;SDS011;2901;42.140;24.760;2024-01-15T11:21:47;43.80;;;25.63;;
5752;SDS011;2901;42.140;24.760;2024-01-15T11:24:33;52.22;;;25.88;;
5752;SDS011;2901;42.140;24.760;2024-01-15T11:27:02;49.22;;;25.38;;
5752;SDS011;2901;42.140;24.760;2024-01-15T11:31:57;49.95;;;26.23;;
5752;SDS011;2901;42.140;24.760;2024-01-15T11:34:51;39.90;;;24.60;;
5752;SDS011;2901;42.140;24.760;2024-01-15T11:37:22;40.58;;;25.70;;
5752;SDS011;2901;42.140;24.760;2024-01-15T11:39:49;46.30;;;24.13;;
5752;SDS011;2901;42.140;24.760;2024-01-15T11:42:16;38.30;;;24.13;;
5752;SDS011;2901;42.140;24.760;2024-01-15T11:44:43;35.72;;;21.40;;
5752;SDS011;2901;42.140;24.760;2024-01-15T11:47:10;36.58;;;21.40;;
5752;SDS011;2901;42.140;24.760;2024-01-15T11:52:36;32.00;;;20.50;;
5752;SDS011;2901;42.140;24.760;2024-01-15T11:57:47;32.28;;;20.55;;
5752;SDS011;2901;42.140;24.760;2024-01-15T12:00:15;38.33;;;22.13;;
5752;SDS011;2901;42.140;24.760;2024-01-15T12:02:42;36.58;;;21.73;;
5752;SDS011;2901;42.140;24.760;2024-01-15T12:05:09;33.42;;;20.77;;
5752;SDS011;2901;42.140;24.760;2024-01-15T12:07:38;23.00;;;16.42;;
5752;SDS011;2901;42.140;24.760;2024-01-15T12:10:07;23.90;;;16.48;;
5752;SDS011;2901;42.140;24.760;2024-01-15T12:15:04;25.60;;;18.20;;
5752;SDS011;2901;42.140;24.760;2024-01-15T12:17:30;32.20;;;19.67;;
5752;SDS011;2901;42.140;24.760;2024-01-15T12:19:56;32.25;;;21.25;;
5752;SDS011;2901;42.140;24.760;2024-01-15T12:22:22;47.92;;;22.15;;
5752;SDS011;2901;42.140;24.760;2024-01-15T12:24:47;30.95;;;21.13;;
5752;SDS011;2901;42.140;24.760;2024-01-15T12:27:13;35.55;;;23.30;;
5752;SDS011;2901;42.140;24.760;2024-01-15T12:29:38;55.60;;;32.47;;
5752;SDS011;2901;42.140;24.760;2024-01-15T12:32:04;62.75;;;33.42;;
5752;SDS011;2901;42.140;24.760;2024-01-15T12:34:30;65.97;;;32.87;;
5752;SDS011;2901;42.140;24.760;2024-01-15T12:36:57;64.55;;;32.90;;
5752;SDS011;2901;42.140;24.760;2024-01-15T12:39:24;56.07;;;31.10;;
5752;SDS011;2901;42.140;24.760;2024-01-15T12:41:49;57.20;;;32.03;;
5752;SDS011;2901;42.140;24.760;2024-01-15T12:44:15;59.00;;;34.37;;
5752;SDS011;2901;42.140;24.760;2024-01-15T12:46:40;63.07;;;34.20;;
5752;SDS011;2901;42.140;24.760;2024-01-15T12:49:06;64.20;;;32.30;;
5752;SDS011;2901;42.140;24.760;2024-01-15T12:51:34;55.27;;;30.40;;
5752;SDS011;2901;42.140;24.760;2024-01-15T12:53:59;53.30;;;32.33;;
5752;SDS011;2901;42.140;24.760;2024-01-15T12:56:25;66.77;;;32.00;;
5752;SDS011;2901;42.140;24.760;2024-01-15T12:58:50;61.23;;;32.73;;
5752;SDS011;2901;42.140;24.760;2024-01-15T13:01:15;56.67;;;30.33;;
5752;SDS011;2901;42.140;24.760;2024-01-15T13:03:41;64.80;;;31.50;;
5752;SDS011;2901;42.140;24.760;2024-01-15T13:06:07;55.13;;;32.13;;
5752;SDS011;2901;42.140;24.760;2024-01-15T13:08:32;53.73;;;32.03;;
5752;SDS011;2901;42.140;24.760;2024-01-15T13:10:57;54.83;;;31.05;;
5752;SDS011;2901;42.140;24.760;2024-01-15T13:13:23;60.00;;;30.90;;
5752;SDS011;2901;42.140;24.760;2024-01-15T13:15:48;69.97;;;34.85;;
5752;SDS011;2901;42.140;24.760;2024-01-15T13:18:14;55.33;;;31.20;;
5752;SDS011;2901;42.140;24.760;2024-01-15T13:20:39;55.57;;;33.30;;
5752;SDS011;2901;42.140;24.760;2024-01-15T13:23:05;65.20;;;34.88;;
5752;SDS011;2901;42.140;24.760;2024-01-15T13:25:30;52.42;;;31.85;;
5752;SDS011;2901;42.140;24.760;2024-01-15T13:27:57;56.60;;;35.22;;
5752;SDS011;2901;42.140;24.760;2024-01-15T13:30:22;65.47;;;35.67;;
5752;SDS011;2901;42.140;24.760;2024-01-15T13:32:47;76.70;;;36.43;;
5752;SDS011;2901;42.140;24.760;2024-01-15T13:35:13;72.70;;;36.60;;
5752;SDS011;2901;42.140;24.760;2024-01-15T13:37:38;70.77;;;35.83;;
5752;SDS011;2901;42.140;24.760;2024-01-15T13:40:06;73.10;;;35.37;;
5752;SDS011;2901;42.140;24.760;2024-01-15T13:42:34;68.77;;;35.30;;
5752;SDS011;2901;42.140;24.760;2024-01-15T13:45:02;81.60;;;37.50;;
5752;SDS011;2901;42.140;24.760;2024-01-15T13:47:28;60.47;;;36.67;;
5752;SDS011;2901;42.140;24.760;2024-01-15T13:49:54;66.33;;;36.33;;
5752;SDS011;2901;42.140;24.760;2024-01-15T13:52:20;72.67;;;37.60;;
5752;SDS011;2901;42.140;24.760;2024-01-15T13:54:45;73.13;;;37.00;;
5752;SDS011;2901;42.140;24.760;2024-01-15T13:57:11;67.33;;;38.43;;
5752;SDS011;2901;42.140;24.760;2024-01-15T13:59:36;67.40;;;37.70;;
5752;SDS011;2901;42.140;24.760;2024-01-15T14:02:01;73.43;;;37.93;;
5752;SDS011;2901;42.140;24.760;2024-01-15T14:04:27;71.37;;;37.23;;
5752;SDS011;2901;42.140;24.760;2024-01-15T14:06:52;72.83;;;35.93;;
5752;SDS011;2901;42.140;24.760;2024-01-15T14:09:18;72.17;;;37.37;;
5752;SDS011;2901;42.140;24.760;2024-01-15T14:11:43;67.83;;;36.20;;
5752;SDS011;2901;42.140;24.760;2024-01-15T14:14:08;59.13;;;32.30;;
5752;SDS011;2901;42.140;24.760;2024-01-15T14:16:34;55.73;;;32.83;;
5752;SDS011;2901;42.140;24.760;2024-01-15T14:18:59;58.97;;;31.60;;
5752;SDS011;2901;42.140;24.760;2024-01-15T14:21:27;53.97;;;32.43;;
5752;SDS011;2901;42.140;24.760;2024-01-15T14:23:52;61.50;;;33.73;;
5752;SDS011;2901;42.140;24.760;2024-01-15T14:26:18;74.23;;;34.97;;
5752;SDS011;2901;42.140;24.760;2024-01-15T14:28:43;74.03;;;35.53;;
5752;SDS011;2901;42.140;24.760;2024-01-15T14:31:08;63.43;;;33.33;;
5752;SDS011;2901;42.140;24.760;2024-01-15T14:33:34;59.47;;;33.60;;
5752;SDS011;2901;42.140;24.760;2024-01-15T14:35:59;72.13;;;35.47;;
5752;SDS011;2901;42.140;24.760;2024-01-15T14:38:25;60.13;;;33.00;;